Wetterdaten: Woche 03.04.23 - 09.04.23 (KW14)
Datum Zeit Temp. Aussen Temp. o. S. Temp +5cm Feuchte Auss Luftdruck Regen Sonnenschein Regendauer Solar Windben Empfang
03.04.2023 00:00 1,7 C 0,6 C -2,0 C 88 % 1029,5 hPa 0,0 l/m 0,00 h 0,00 h 0 W/m 0,0 km/h (0 Bft) 96,40 %
03.04.2023 01:00 1,2 C 0,3 C -2,3 C 89 % 1029,8 hPa 0,0 l/m 0,00 h 0,00 h 0 W/m 0,1 km/h (0 Bft) 95,94 %
03.04.2023 02:00 0,7 C -0,2 C -2,8 C 90 % 1029,8 hPa 0,0 l/m 0,00 h 0,00 h 0 W/m 0,6 km/h (0 Bft) 94,79 %
03.04.2023 03:00 0,4 C -0,6 C -2,8 C 91 % 1029,9 hPa 0,0 l/m 0,00 h 0,00 h 0 W/m 0,7 km/h (0 Bft) 96,22 %
03.04.2023 04:00 0,7 C -0,0 C -2,5 C 93 % 1030,1 hPa 0,0 l/m 0,00 h 0,00 h 0 W/m 4,9 km/h (1 Bft) 97,59 %
03.04.2023 05:00 1,0 C 0,0 C -2,7 C 93 % 1030,2 hPa 0,0 l/m 0,00 h 0,00 h 0 W/m 7,1 km/h (2 Bft) 94,33 %
03.04.2023 06:00 0,7 C -0,2 C -2,8 C 92 % 1030,4 hPa 0,0 l/m 0,00 h 0,00 h 0 W/m 8,6 km/h (2 Bft) 97,13 %
03.04.2023 07:00 0,6 C -0,2 C -2,8 C 92 % 1030,8 hPa 0,0 l/m 0,00 h 0,00 h 12 W/m 9,9 km/h (2 Bft) 97,03 %
03.04.2023 08:00 1,1 C 0,6 C -2,3 C 91 % 1031,3 hPa 0,0 l/m 0,00 h 0,00 h 24 W/m 13,2 km/h (3 Bft) 96,92 %
03.04.2023 09:00 2,8 C 4,3 C -0,5 C 87 % 1031,6 hPa 0,0 l/m 0,77 h 0,00 h 311 W/m 14,0 km/h (3 Bft) 97,86 %
03.04.2023 10:00 5,5 C 13,4 C 4,5 C 74 % 1031,8 hPa 0,0 l/m 0,87 h 0,00 h 413 W/m 16,8 km/h (3 Bft) 97,84 %
03.04.2023 11:00 7,1 C 14,6 C 6,1 C 60 % 1031,8 hPa 0,0 l/m 0,97 h 0,00 h 566 W/m 20,8 km/h (4 Bft) 96,09 %
03.04.2023 12:00 8,5 C 19,3 C 8,8 C 55 % 1031,6 hPa 0,0 l/m 1,00 h 0,00 h 761 W/m 19,8 km/h (3 Bft) 99,01 %
03.04.2023 13:00 9,3 C 16,2 C 6,2 C 54 % 1031,1 hPa 0,0 l/m 1,00 h 0,00 h 794 W/m 18,4 km/h (3 Bft) 98,70 %
03.04.2023 14:00 10,3 C 19,3 C 5,8 C 54 % 1030,5 hPa 0,0 l/m 1,00 h 0,00 h 775 W/m 20,5 km/h (4 Bft) 96,87 %
03.04.2023 15:00 10,4 C 16,6 C 6,2 C 52 % 1030,0 hPa 0,0 l/m 1,00 h 0,00 h 705 W/m 21,0 km/h (4 Bft) 94,79 %
03.04.2023 16:00 10,4 C 15,3 C 6,9 C 53 % 1029,6 hPa 0,0 l/m 1,00 h 0,00 h 585 W/m 20,3 km/h (4 Bft) 98,00 %
03.04.2023 17:00 9,8 C 15,0 C 6,7 C 54 % 1029,3 hPa 0,0 l/m 1,00 h 0,00 h 426 W/m 20,5 km/h (4 Bft) 95,29 %
03.04.2023 18:00 9,2 C 12,7 C 6,3 C 55 % 1029,4 hPa 0,0 l/m 0,97 h 0,00 h 218 W/m 17,9 km/h (3 Bft) 85,05 %
03.04.2023 19:00 7,3 C 6,7 C 3,1 C 60 % 1029,6 hPa 0,0 l/m 0,00 h 0,00 h 22 W/m 16,0 km/h (3 Bft) 92,71 %
03.04.2023 20:00 5,8 C 5,1 C 1,7 C 64 % 1029,8 hPa 0,0 l/m 0,00 h 0,00 h 6 W/m 12,7 km/h (3 Bft) 97,94 %
03.04.2023 21:00 4,7 C 3,9 C 0,4 C 69 % 1030,1 hPa 0,0 l/m 0,00 h 0,00 h 0 W/m 7,8 km/h (2 Bft) 97,41 %
03.04.2023 22:00 3,7 C 3,0 C -0,4 C 73 % 1030,1 hPa 0,0 l/m 0,00 h 0,00 h 0 W/m 6,5 km/h (2 Bft) 96,30 %
03.04.2023 23:00 3,2 C 2,3 C -1,2 C 73 % 1030,2 hPa 0,0 l/m 0,00 h 0,00 h 0 W/m 5,3 km/h (1 Bft) 97,16 %
04.04.2023 00:00 2,3 C 1,2 C -2,0 C 76 % 1030,1 hPa 0,0 l/m 0,00 h 0,00 h 0 W/m 2,1 km/h (1 Bft) 97,82 %
04.04.2023 01:00 1,7 C 0,6 C -2,3 C 78 % 1029,9 hPa 0,0 l/m 0,00 h 0,00 h 0 W/m 3,3 km/h (1 Bft) 97,62 %
04.04.2023 02:00 1,2 C 0,0 C -2,8 C 80 % 1029,9 hPa 0,0 l/m 0,00 h 0,00 h 0 W/m 4,3 km/h (1 Bft) 94,33 %
04.04.2023 03:00 0,6 C -0,6 C -3,4 C 82 % 1029,8 hPa 0,0 l/m 0,00 h 0,00 h 0 W/m 3,8 km/h (1 Bft) 92,88 %
04.04.2023 04:00 0,0 C -1,4 C -4,1 C 83 % 1029,6 hPa 0,0 l/m 0,00 h 0,00 h 0 W/m 0,4 km/h (0 Bft) 98,73 %
04.04.2023 05:00 -0,7 C -1,8 C -4,4 C 85 % 1029,5 hPa 0,0 l/m 0,00 h 0,00 h 0 W/m 0,5 km/h (0 Bft) 96,19 %
04.04.2023 06:00 -1,2 C -2,3 C -5,1 C 86 % 1029,3 hPa 0,0 l/m 0,00 h 0,00 h 0 W/m 0,8 km/h (0 Bft) 93,30 %
04.04.2023 07:00 -1,6 C -2,1 C -4,9 C 88 % 1029,4 hPa 0,0 l/m 0,00 h 0,00 h 13 W/m 2,0 km/h (1 Bft) 96,77 %
04.04.2023 08:00 -0,8 C -0,4 C -3,7 C 89 % 1029,9 hPa 0,0 l/m 0,00 h 0,00 h 34 W/m 4,2 km/h (1 Bft) 87,17 %
04.04.2023 09:00 1,8 C 5,2 C -1,2 C 85 % 1030,0 hPa 0,0 l/m 0,80 h 0,00 h 331 W/m 5,9 km/h (2 Bft) 98,79 %
04.04.2023 10:00 6,4 C 14,6 C 2,7 C 61 % 1029,9 hPa 0,0 l/m 0,87 h 0,00 h 433 W/m 11,8 km/h (2 Bft) 96,94 %
04.04.2023 11:00 7,7 C 15,2 C 6,2 C 57 % 1029,7 hPa 0,0 l/m 0,97 h 0,00 h 559 W/m 14,5 km/h (3 Bft) 99,20 %
04.04.2023 12:00 8,8 C 20,2 C 9,3 C 54 % 1029,4 hPa 0,0 l/m 1,00 h 0,00 h 761 W/m 15,1 km/h (3 Bft) 97,90 %
04.04.2023 13:00 9,6 C 16,8 C 6,3 C 52 % 1028,8 hPa 0,0 l/m 1,00 h 0,00 h 796 W/m 12,0 km/h (2 Bft) 97,65 %
04.04.2023 14:00 11,0 C 21,0 C 6,6 C 48 % 1028,2 hPa 0,0 l/m 1,00 h 0,00 h 777 W/m 14,1 km/h (3 Bft) 98,22 %
04.04.2023 15:00 11,7 C 18,6 C 7,0 C 46 % 1027,5 hPa 0,0 l/m 1,00 h 0,00 h 707 W/m 13,3 km/h (3 Bft) 90,13 %
04.04.2023 16:00 11,8 C 16,8 C 7,5 C 45 % 1026,8 hPa 0,0 l/m 1,00 h 0,00 h 552 W/m 12,7 km/h (3 Bft) 82,91 %
04.04.2023 17:00 12,1 C 16,5 C 8,1 C 44 % 1026,2 hPa 0,0 l/m 1,00 h 0,00 h 459 W/m 12,1 km/h (2 Bft) 96,66 %
04.04.2023 18:00 11,5 C 14,4 C 7,8 C 47 % 1025,8 hPa 0,0 l/m 0,93 h 0,00 h 230 W/m 10,0 km/h (2 Bft) 98,92 %
04.04.2023 19:00 9,1 C 8,8 C 5,0 C 54 % 1025,6 hPa 0,0 l/m 0,00 h 0,00 h 34 W/m 8,9 km/h (2 Bft) 95,87 %
04.04.2023 20:00 7,4 C 6,7 C 3,2 C 62 % 1025,5 hPa 0,0 l/m 0,00 h 0,00 h 6 W/m 5,4 km/h (1 Bft) 97,25 %
04.04.2023 21:00 6,5 C 5,5 C 2,1 C 66 % 1025,8 hPa 0,0 l/m 0,00 h 0,00 h 0 W/m 1,3 km/h (1 Bft) 98,04 %
04.04.2023 22:00 5,9 C 4,7 C 1,5 C 69 % 1025,8 hPa 0,0 l/m 0,00 h 0,00 h 0 W/m 1,3 km/h (1 Bft) 96,92 %
04.04.2023 23:00 5,2 C 4,0 C 0,7 C 72 % 1025,7 hPa 0,0 l/m 0,00 h 0,00 h 0 W/m 0,1 km/h (0 Bft) 95,25 %
05.04.2023 00:00 4,3 C 2,4 C -0,6 C 74 % 1025,4 hPa 0,0 l/m 0,00 h 0,00 h 0 W/m 0,0 km/h (0 Bft) 94,46 %
05.04.2023 01:00 2,9 C 1,1 C -1,8 C 77 % 1025,0 hPa 0,0 l/m 0,00 h 0,00 h 0 W/m 0,0 km/h (0 Bft) 98,05 %
05.04.2023 02:00 1,7 C 0,4 C -2,5 C 80 % 1024,6 hPa 0,0 l/m 0,00 h 0,00 h 0 W/m 0,0 km/h (0 Bft) 97,59 %
05.04.2023 03:00 0,9 C -0,2 C -3,0 C 83 % 1024,3 hPa 0,0 l/m 0,00 h 0,00 h 0 W/m 0,0 km/h (0 Bft) 96,19 %
05.04.2023 04:00 0,3 C -1,0 C -3,6 C 85 % 1024,0 hPa 0,0 l/m 0,00 h 0,00 h 0 W/m 0,0 km/h (0 Bft) 96,53 %
05.04.2023 05:00 -0,2 C -1,4 C -4,1 C 87 % 1023,8 hPa 0,0 l/m 0,00 h 0,00 h 0 W/m 0,1 km/h (0 Bft) 95,70 %
05.04.2023 06:00 -0,9 C -1,8 C -4,4 C 87 % 1023,7 hPa 0,0 l/m 0,00 h 0,00 h 0 W/m 0,0 km/h (0 Bft) 95,04 %
05.04.2023 07:00 -1,3 C -1,7 C -4,3 C 88 % 1023,6 hPa 0,0 l/m 0,00 h 0,00 h 15 W/m 0,1 km/h (0 Bft) 97,59 %
05.04.2023 08:00 -0,7 C -0,0 C -3,1 C 91 % 1023,7 hPa 0,0 l/m 0,00 h 0,00 h 34 W/m 1,4 km/h (1 Bft) 93,38 %
05.04.2023 09:00 2,4 C 5,7 C -0,4 C 89 % 1023,6 hPa 0,0 l/m 0,83 h 0,00 h 319 W/m 2,8 km/h (1 Bft) 94,81 %
05.04.2023 10:00 7,0 C 14,5 C 2,7 C 69 % 1023,7 hPa 0,0 l/m 0,80 h 0,00 h 397 W/m 6,2 km/h (2 Bft) 96,80 %
05.04.2023 11:00 9,2 C 16,4 C 8,0 C 61 % 1023,5 hPa 0,0 l/m 1,00 h 0,00 h 577 W/m 8,2 km/h (2 Bft) 99,08 %
05.04.2023 12:00 10,9 C 20,5 C 13,0 C 52 % 1023,2 hPa 0,0 l/m 1,00 h 0,00 h 750 W/m 8,9 km/h (2 Bft) 96,94 %
05.04.2023 13:00 11,5 C 17,4 C 8,5 C 48 % 1022,7 hPa 0,0 l/m 1,00 h 0,00 h 784 W/m 11,6 km/h (2 Bft) 99,57 %
05.04.2023 14:00 12,5 C 20,9 C 8,0 C 47 % 1022,0 hPa 0,0 l/m 1,00 h 0,00 h 764 W/m 12,8 km/h (3 Bft) 96,82 %
05.04.2023 15:00 12,9 C 18,9 C 8,0 C 47 % 1021,4 hPa 0,0 l/m 1,00 h 0,00 h 686 W/m 9,9 km/h (2 Bft) 97,73 %
05.04.2023 16:00 12,8 C 17,7 C 8,5 C 47 % 1020,8 hPa 0,0 l/m 1,00 h 0,00 h 558 W/m 9,4 km/h (2 Bft) 96,94 %
05.04.2023 17:00 12,7 C 16,2 C 8,5 C 46 % 1020,4 hPa 0,0 l/m 1,00 h 0,00 h 409 W/m 7,8 km/h (2 Bft) 95,51 %
05.04.2023 18:00 12,2 C 14,4 C 8,2 C 46 % 1020,0 hPa 0,0 l/m 0,93 h 0,00 h 203 W/m 7,3 km/h (2 Bft) 99,03 %
05.04.2023 19:00 11,0 C 9,9 C 6,3 C 49 % 1019,9 hPa 0,0 l/m 0,00 h 0,00 h 33 W/m 4,6 km/h (1 Bft) 97,13 %
05.04.2023 20:00 9,3 C 7,1 C 3,4 C 58 % 1020,0 hPa 0,0 l/m 0,00 h 0,00 h 7 W/m 1,3 km/h (1 Bft) 95,74 %
05.04.2023 21:00 7,7 C 5,6 C 1,5 C 61 % 1020,4 hPa 0,0 l/m 0,00 h 0,00 h 0 W/m 0,2 km/h (0 Bft) 88,07 %
05.04.2023 22:00 6,3 C 4,5 C 0,8 C 66 % 1020,1 hPa 0,0 l/m 0,00 h 0,00 h 0 W/m 0,7 km/h (0 Bft) 96,89 %
05.04.2023 23:00 5,1 C 3,5 C -0,2 C 71 % 1019,8 hPa 0,0 l/m 0,00 h 0,00 h 0 W/m 0,3 km/h (0 Bft) 96,70 %
06.04.2023 00:00 4,0 C 2,4 C -1,0 C 75 % 1019,6 hPa 0,0 l/m 0,00 h 0,00 h 0 W/m 0,0 km/h (0 Bft) 75,32 %
06.04.2023 01:00 3,0 C 1,4 C -1,7 C 79 % 1019,2 hPa 0,0 l/m 0,00 h 0,00 h 0 W/m 0,0 km/h (0 Bft) 91,98 %
06.04.2023 02:00 2,0 C 0,7 C -2,3 C 81 % 1018,8 hPa 0,0 l/m 0,00 h 0,00 h 0 W/m 0,0 km/h (0 Bft) 88,14 %
06.04.2023 03:00 1,3 C 0,1 C -2,8 C 84 % 1018,3 hPa 0,0 l/m 0,00 h 0,00 h 0 W/m 0,6 km/h (0 Bft) 84,40 %
06.04.2023 04:00 1,4 C 1,3 C -1,7 C 85 % 1017,9 hPa 0,0 l/m 0,00 h 0,00 h 0 W/m 6,6 km/h (2 Bft) 95,07 %
06.04.2023 05:00 1,7 C 1,1 C -1,9 C 84 % 1017,8 hPa 0,0 l/m 0,00 h 0,00 h 0 W/m 6,1 km/h (2 Bft) 97,76 %
06.04.2023 06:00 1,5 C 0,8 C -2,2 C 84 % 1017,6 hPa 0,0 l/m 0,00 h 0,00 h 4 W/m 8,8 km/h (2 Bft) 96,62 %
06.04.2023 07:00 1,8 C 1,5 C -1,8 C 85 % 1017,7 hPa 0,0 l/m 0,00 h 0,00 h 28 W/m 10,3 km/h (2 Bft) 94,26 %
06.04.2023 08:00 3,1 C 3,6 C -0,1 C 82 % 1017,6 hPa 0,0 l/m 0,70 h 0,00 h 118 W/m 15,4 km/h (3 Bft) 96,82 %
06.04.2023 09:00 5,3 C 6,3 C 2,0 C 75 % 1017,4 hPa 0,0 l/m 1,00 h 0,00 h 228 W/m 12,5 km/h (3 Bft) 95,95 %
06.04.2023 10:00 7,7 C 9,9 C 5,0 C 68 % 1017,3 hPa 0,0 l/m 1,00 h 0,00 h 338 W/m 14,9 km/h (3 Bft) 98,72 %
06.04.2023 11:00 9,7 C 11,6 C 7,0 C 62 % 1017,0 hPa 0,0 l/m 1,00 h 0,00 h 368 W/m 14,4 km/h (3 Bft) 97,08 %
06.04.2023 12:00 11,8 C 13,9 C 9,5 C 60 % 1017,0 hPa 0,0 l/m 0,70 h 0,00 h 422 W/m 16,7 km/h (3 Bft) 94,92 %
06.04.2023 13:00 12,0 C 13,6 C 9,0 C 61 % 1016,9 hPa 0,0 l/m 0,87 h 0,00 h 382 W/m 14,7 km/h (3 Bft) 97,94 %
06.04.2023 14:00 12,4 C 13,1 C 8,9 C 61 % 1016,7 hPa 0,0 l/m 0,40 h 0,00 h 321 W/m 18,2 km/h (3 Bft) 96,30 %
06.04.2023 15:00 10,9 C 10,6 C 5,7 C 73 % 1016,7 hPa 0,0 l/m 0,00 h 0,63 h 196 W/m 20,2 km/h (4 Bft) 98,22 %
06.04.2023 16:00 9,7 C 9,3 C 4,2 C 82 % 1016,4 hPa 0,4 l/m 0,00 h 0,93 h 118 W/m 17,4 km/h (3 Bft) 96,97 %
06.04.2023 17:00 9,0 C 8,3 C 3,5 C 86 % 1016,1 hPa 0,6 l/m 0,00 h 0,90 h 68 W/m 15,8 km/h (3 Bft) 96,78 %
06.04.2023 18:00 8,4 C 7,4 C 3,3 C 90 % 1015,9 hPa 1,4 l/m 0,00 h 1,00 h 30 W/m 15,9 km/h (3 Bft) 96,85 %
06.04.2023 19:00 7,7 C 6,8 C 3,0 C 94 % 1015,6 hPa 0,8 l/m 0,00 h 1,00 h 10 W/m 17,8 km/h (3 Bft) 98,72 %
06.04.2023 20:00 7,5 C 6,7 C 3,0 C 96 % 1015,4 hPa 0,4 l/m 0,00 h 0,20 h 2 W/m 18,4 km/h (3 Bft) 95,49 %
06.04.2023 21:00 7,3 C 6,4 C 2,9 C 97 % 1015,3 hPa 0,4 l/m 0,00 h 0,00 h 0 W/m 18,6 km/h (3 Bft) 96,40 %
06.04.2023 22:00 7,1 C 6,1 C 2,8 C 97 % 1015,1 hPa 0,2 l/m 0,00 h 0,00 h 0 W/m 17,1 km/h (3 Bft) 94,02 %
06.04.2023 23:00 7,0 C 6,1 C 2,8 C 97 % 1014,7 hPa 0,8 l/m 0,00 h 0,33 h 0 W/m 13,6 km/h (3 Bft) 90,53 %
07.04.2023 00:00 7,2 C 6,5 C 3,1 C 98 % 1014,6 hPa 1,0 l/m 0,00 h 0,83 h 0 W/m 10,2 km/h (2 Bft) 86,31 %
07.04.2023 01:00 7,4 C 6,7 C 3,4 C 98 % 1014,4 hPa 0,6 l/m 0,00 h 0,93 h 0 W/m 4,8 km/h (1 Bft) 95,99 %
07.04.2023 02:00 8,0 C 7,3 C 4,1 C 98 % 1014,5 hPa 0,2 l/m 0,00 h 0,07 h 0 W/m 4,5 km/h (1 Bft) 97,44 %
07.04.2023 03:00 8,3 C 7,8 C 4,4 C 99 % 1014,4 hPa 0,0 l/m 0,00 h 0,00 h 0 W/m 5,9 km/h (2 Bft) 94,64 %
07.04.2023 04:00 8,2 C 7,7 C 4,4 C 99 % 1014,5 hPa 0,0 l/m 0,00 h 0,00 h 0 W/m 9,9 km/h (2 Bft) 96,77 %
07.04.2023 05:00 7,9 C 7,2 C 4,0 C 99 % 1014,7 hPa 0,0 l/m 0,00 h 0,00 h 0 W/m 9,8 km/h (2 Bft) 96,69 %
07.04.2023 06:00 7,7 C 7,2 C 3,9 C 98 % 1015,1 hPa 0,0 l/m 0,00 h 0,00 h 0 W/m 10,6 km/h (2 Bft) 97,33 %
07.04.2023 07:00 7,6 C 6,7 C 3,9 C 98 % 1015,4 hPa 0,0 l/m 0,00 h 0,00 h 11 W/m 1,6 km/h (1 Bft) 97,85 %
07.04.2023 08:00 7,6 C 7,2 C 3,9 C 98 % 1015,8 hPa 0,0 l/m 0,00 h 0,00 h 33 W/m 5,1 km/h (1 Bft) 97,17 %
07.04.2023 09:00 7,9 C 7,7 C 4,4 C 98 % 1016,3 hPa 0,0 l/m 0,00 h 0,00 h 57 W/m 7,7 km/h (2 Bft) 96,59 %
07.04.2023 10:00 8,1 C 7,8 C 4,4 C 98 % 1016,8 hPa 0,0 l/m 0,00 h 0,00 h 57 W/m 10,4 km/h (2 Bft) 99,00 %
07.04.2023 11:00 8,3 C 8,2 C 4,8 C 98 % 1017,2 hPa 0,0 l/m 0,00 h 0,00 h 93 W/m 9,9 km/h (2 Bft) 96,58 %
07.04.2023 12:00 8,6 C 8,6 C 5,3 C 96 % 1017,4 hPa 0,0 l/m 0,00 h 0,00 h 119 W/m 11,8 km/h (2 Bft) 97,35 %
07.04.2023 13:00 9,2 C 9,7 C 6,1 C 94 % 1017,8 hPa 0,0 l/m 0,00 h 0,00 h 154 W/m 12,0 km/h (2 Bft) 98,58 %
07.04.2023 14:00 9,8 C 9,7 C 6,4 C 90 % 1018,2 hPa 0,0 l/m 0,00 h 0,00 h 127 W/m 12,4 km/h (3 Bft) 97,08 %
07.04.2023 15:00 10,0 C 9,8 C 6,4 C 88 % 1018,4 hPa 0,0 l/m 0,00 h 0,00 h 115 W/m 13,0 km/h (3 Bft) 96,87 %
07.04.2023 16:00 9,9 C 10,0 C 6,4 C 90 % 1018,6 hPa 0,0 l/m 0,00 h 0,10 h 148 W/m 13,2 km/h (3 Bft) 98,72 %
07.04.2023 17:00 10,3 C 10,5 C 6,7 C 88 % 1018,7 hPa 0,0 l/m 0,00 h 0,07 h 157 W/m 12,4 km/h (3 Bft) 97,23 %
07.04.2023 18:00 10,3 C 10,0 C 6,5 C 88 % 1019,2 hPa 0,0 l/m 0,00 h 0,03 h 70 W/m 9,4 km/h (2 Bft) 95,05 %
07.04.2023 19:00 9,6 C 8,5 C 5,1 C 92 % 1019,7 hPa 0,0 l/m 0,00 h 0,33 h 18 W/m 4,6 km/h (1 Bft) 96,36 %
07.04.2023 20:00 8,8 C 7,8 C 4,5 C 94 % 1020,4 hPa 0,0 l/m 0,00 h 0,00 h 5 W/m 1,8 km/h (1 Bft) 98,08 %
07.04.2023 21:00 8,5 C 7,8 C 4,9 C 95 % 1021,1 hPa 0,0 l/m 0,00 h 0,00 h 0 W/m 2,6 km/h (1 Bft) 96,19 %
07.04.2023 22:00 8,4 C 7,8 C 4,6 C 95 % 1021,5 hPa 0,0 l/m 0,00 h 0,00 h 0 W/m 3,2 km/h (1 Bft) 97,37 %
07.04.2023 23:00 8,2 C 7,3 C 4,4 C 96 % 1021,8 hPa 0,0 l/m 0,00 h 0,00 h 0 W/m 8,4 km/h (2 Bft) 96,31 %
08.04.2023 00:00 8,1 C 7,2 C 4,4 C 97 % 1021,9 hPa 0,4 l/m 0,00 h 0,07 h 0 W/m 3,6 km/h (1 Bft) 96,63 %
08.04.2023 01:00 8,1 C 7,2 C 4,4 C 97 % 1022,2 hPa 0,0 l/m 0,00 h 0,00 h 0 W/m 3,7 km/h (1 Bft) 97,93 %
08.04.2023 02:00 8,0 C 7,2 C 4,4 C 98 % 1022,5 hPa 0,2 l/m 0,00 h 0,00 h 0 W/m 0,0 km/h (0 Bft) 96,39 %
08.04.2023 03:00 7,9 C 7,2 C 4,4 C 98 % 1022,7 hPa 0,0 l/m 0,00 h 0,00 h 0 W/m 0,0 km/h (0 Bft) 99,51 %
08.04.2023 04:00 7,9 C 7,2 C 4,4 C 98 % 1022,8 hPa 0,0 l/m 0,00 h 0,00 h 0 W/m 0,0 km/h (0 Bft) 95,50 %
08.04.2023 05:00 7,8 C 7,1 C 4,4 C 99 % 1022,9 hPa 0,0 l/m 0,00 h 0,00 h 0 W/m 0,0 km/h (0 Bft) 96,17 %
08.04.2023 06:00 7,7 C 6,7 C 4,4 C 99 % 1023,2 hPa 0,0 l/m 0,00 h 0,00 h 0 W/m 0,0 km/h (0 Bft) 97,88 %
08.04.2023 07:00 7,6 C 7,0 C 4,4 C 99 % 1023,6 hPa 0,0 l/m 0,00 h 0,00 h 17 W/m 0,0 km/h (0 Bft) 97,31 %
08.04.2023 08:00 7,7 C 7,4 C 4,5 C 99 % 1024,1 hPa 0,0 l/m 0,00 h 0,00 h 56 W/m 2,8 km/h (1 Bft) 96,99 %
08.04.2023 09:00 7,8 C 8,2 C 5,0 C 99 % 1024,6 hPa 0,0 l/m 0,13 h 0,00 h 130 W/m 8,8 km/h (2 Bft) 95,98 %
08.04.2023 10:00 8,1 C 8,7 C 5,5 C 99 % 1025,2 hPa 0,0 l/m 0,03 h 0,00 h 133 W/m 11,2 km/h (2 Bft) 97,23 %
08.04.2023 11:00 8,2 C 9,0 C 5,6 C 99 % 1025,5 hPa 0,0 l/m 0,00 h 0,00 h 170 W/m 11,5 km/h (2 Bft) 96,18 %
08.04.2023 12:00 9,6 C 13,0 C 8,4 C 95 % 1025,6 hPa 0,0 l/m 0,67 h 0,00 h 377 W/m 11,2 km/h (2 Bft) 96,83 %
08.04.2023 13:00 11,8 C 15,6 C 9,6 C 79 % 1025,4 hPa 0,0 l/m 0,73 h 0,00 h 489 W/m 10,3 km/h (2 Bft) 96,16 %
08.04.2023 14:00 11,6 C 12,1 C 8,0 C 74 % 1025,4 hPa 0,0 l/m 0,00 h 0,00 h 187 W/m 11,2 km/h (2 Bft) 97,95 %
08.04.2023 15:00 11,3 C 11,7 C 7,7 C 75 % 1025,4 hPa 0,0 l/m 0,00 h 0,00 h 183 W/m 11,0 km/h (2 Bft) 99,22 %
08.04.2023 16:00 11,7 C 12,9 C 8,2 C 76 % 1025,2 hPa 0,0 l/m 0,37 h 0,00 h 241 W/m 10,7 km/h (2 Bft) 94,96 %
08.04.2023 17:00 11,9 C 12,3 C 8,1 C 78 % 1025,2 hPa 0,0 l/m 0,07 h 0,00 h 156 W/m 9,6 km/h (2 Bft) 98,79 %
08.04.2023 18:00 11,6 C 11,3 C 7,4 C 81 % 1025,2 hPa 0,0 l/m 0,00 h 0,00 h 62 W/m 7,0 km/h (2 Bft) 97,68 %
08.04.2023 19:00 10,8 C 10,3 C 6,7 C 84 % 1025,4 hPa 0,0 l/m 0,00 h 0,00 h 20 W/m 7,1 km/h (2 Bft) 94,85 %
08.04.2023 20:00 10,2 C 9,7 C 6,1 C 86 % 1025,7 hPa 0,0 l/m 0,00 h 0,00 h 7 W/m 0,0 km/h (0 Bft) 98,00 %
08.04.2023 21:00 10,0 C 9,8 C 5,7 C 87 % 1026,0 hPa 0,0 l/m 0,00 h 0,00 h 0 W/m 0,0 km/h (0 Bft) 98,51 %
08.04.2023 22:00 9,9 C 9,4 C 5,6 C 88 % 1026,2 hPa 0,0 l/m 0,00 h 0,00 h 0 W/m 0,0 km/h (0 Bft) 95,28 %
08.04.2023 23:00 9,9 C 9,2 C 5,6 C 88 % 1026,1 hPa 0,0 l/m 0,00 h 0,00 h 0 W/m 1,2 km/h (1 Bft) 98,82 %
09.04.2023 00:00 9,2 C 8,1 C 4,8 C 90 % 1026,0 hPa 0,0 l/m 0,00 h 0,00 h 0 W/m 5,0 km/h (1 Bft) 97,58 %
09.04.2023 01:00 8,1 C 6,8 C 3,6 C 91 % 1025,9 hPa 0,0 l/m 0,00 h 0,00 h 0 W/m 0,0 km/h (0 Bft) 97,09 %
09.04.2023 02:00 6,9 C 5,6 C 2,5 C 92 % 1025,9 hPa 0,0 l/m 0,00 h 0,00 h 0 W/m 0,0 km/h (0 Bft) 98,00 %
09.04.2023 03:00 6,4 C 5,3 C 2,3 C 93 % 1025,7 hPa 0,0 l/m 0,00 h 0,00 h 0 W/m 0,0 km/h (0 Bft) 95,91 %
09.04.2023 04:00 5,8 C 4,4 C 1,7 C 94 % 1025,5 hPa 0,0 l/m 0,00 h 0,00 h 0 W/m 0,0 km/h (0 Bft) 98,15 %
09.04.2023 05:00 5,0 C 3,7 C 1,0 C 95 % 1025,1 hPa 0,0 l/m 0,00 h 0,00 h 0 W/m 0,0 km/h (0 Bft) 95,07 %
09.04.2023 06:00 4,2 C 2,9 C 0,6 C 95 % 1025,2 hPa 0,0 l/m 0,00 h 0,00 h 3 W/m 0,0 km/h (0 Bft) 96,15 %
09.04.2023 07:00 3,7 C 2,9 C 0,6 C 95 % 1025,2 hPa 0,0 l/m 0,00 h 0,00 h 20 W/m 0,0 km/h (0 Bft) 98,58 %
09.04.2023 08:00 4,1 C 4,4 C 1,5 C 96 % 1025,4 hPa 0,0 l/m 0,00 h 0,00 h 45 W/m 0,0 km/h (0 Bft) 96,45 %
09.04.2023 09:00 6,9 C 11,4 C 4,4 C 96 % 1025,6 hPa 0,0 l/m 0,93 h 0,00 h 344 W/m 3,4 km/h (1 Bft) 96,36 %
09.04.2023 10:00 11,1 C 17,4 C 8,0 C 76 % 1025,6 hPa 0,0 l/m 0,77 h 0,00 h 378 W/m 13,2 km/h (3 Bft) 96,38 %
09.04.2023 11:00 13,1 C 18,3 C 11,6 C 68 % 1025,4 hPa 0,0 l/m 1,00 h 0,00 h 595 W/m 16,1 km/h (3 Bft) 95,71 %
09.04.2023 12:00 14,9 C 22,4 C 15,7 C 58 % 1025,1 hPa 0,0 l/m 0,97 h 0,00 h 774 W/m 15,9 km/h (3 Bft) 96,45 %
09.04.2023 13:00 15,8 C 21,0 C 12,4 C 54 % 1024,7 hPa 0,0 l/m 0,90 h 0,00 h 776 W/m 17,7 km/h (3 Bft) 97,92 %
09.04.2023 14:00 16,3 C 21,4 C 12,1 C 53 % 1024,4 hPa 0,0 l/m 0,83 h 0,00 h 689 W/m 18,1 km/h (3 Bft) 97,50 %
09.04.2023 15:00 16,3 C 19,6 C 12,1 C 54 % 1024,0 hPa 0,0 l/m 0,63 h 0,00 h 595 W/m 14,7 km/h (3 Bft) 99,29 %
09.04.2023 16:00 16,4 C 18,4 C 12,0 C 54 % 1023,6 hPa 0,0 l/m 0,67 h 0,00 h 439 W/m 15,4 km/h (3 Bft) 94,43 %
09.04.2023 17:00 16,1 C 18,9 C 12,3 C 55 % 1023,3 hPa 0,0 l/m 0,80 h 0,00 h 403 W/m 15,0 km/h (3 Bft) 99,57 %
09.04.2023 18:00 16,2 C 18,2 C 12,0 C 54 % 1022,9 hPa 0,0 l/m 0,83 h 0,00 h 217 W/m 14,9 km/h (3 Bft) 98,75 %
09.04.2023 19:00 14,5 C 13,3 C 9,7 C 58 % 1022,8 hPa 0,0 l/m 0,00 h 0,00 h 31 W/m 10,8 km/h (2 Bft) 95,60 %
09.04.2023 20:00 12,5 C 11,3 C 7,9 C 64 % 1022,9 hPa 0,0 l/m 0,00 h 0,00 h 10 W/m 7,2 km/h (2 Bft) 98,57 %
09.04.2023 21:00 11,4 C 10,3 C 6,9 C 67 % 1023,1 hPa 0,0 l/m 0,00 h 0,00 h 0 W/m 4,8 km/h (1 Bft) 97,16 %
09.04.2023 22:00 10,4 C 9,3 C 5,9 C 69 % 1023,0 hPa 0,0 l/m 0,00 h 0,00 h 0 W/m 5,2 km/h (1 Bft) 95,83 %
09.04.2023 23:00 9,7 C 8,6 C 5,4 C 71 % 1022,7 hPa 0,0 l/m 0,00 h 0,00 h 0 W/m 6,9 km/h (2 Bft) 97,76 %
Min-Datum _ 04.04.23 04.04.23 04.04.23 04.04.23 07.04.23 - - - - 03.04.23 04.04.23
_ Min-Zeit 07:22 06:36 06:42 17:20 00:42 - - - - 00:00 16:08
Minimum _ -1,6 C -2,8 C -5,6 C 42 % 1014,4 hPa - - - - 0,0 km/h (0 Bft) 27,66 %
Max-Datum _ 09.04.23 09.04.23 09.04.23 07.04.23 03.04.23 06.04.23 03.04.23 06.04.23 09.04.23 06.04.23 03.04.23
_ Max-Zeit 16:10 12:22 12:30 03:08 11:00 18:00 12:12 18:12 14:52 14:56 00:02
Maximum _ 17,2 C 23,9 C 17,8 C 99 % 1031,9 hPa 1,4 l/m 0,07 h 0,07 h 962 W/m 41,8 km/h
S-SW (6 Bft)
100,00 %
Durchschnitt _ 7,3 C 8,3 C 3,7 C 78 % 1023,5 hPa #7,4 l/m #44:42 h #7:30 h 282 W/m 7,9 km/h (2 Bft) 96,18 %
© 2023 W. Hausmann